Flight Track Log - Related Links

Times and Time Zones

All times are in EDT time to prevent confusion due to time zone crossing. See the KEN1301 flight status page for this flight to view local times or setup timezone preferences in your user account.


Time Position Orientation Groundspeed Altitude Reporting Facility
EDT Latitude Longitude Course Direction KTS MPH feet Rate Location/Type
Tue 12:43:49 PM 47.5189 -122.3069 323° Northwest 102 117 800  Level Seattle Center
Tue 12:44:37 PM 47.5467 -122.3375 334° Northwest 156 180 900 385 Climbing Seattle Center
Tue 12:45:38 PM 47.5847 -122.3656 318° Northwest 149 171 1,500 344 Climbing Seattle Center
Tue 12:46:39 PM 47.6181 -122.4097 310° West 163 188 1,600 422 Climbing Seattle Center
Tue 12:47:46 PM 47.6464 -122.4600 298° West 149 171 2,400 931 Climbing Seattle Center
Tue 12:48:35 PM 47.6611 -122.5011 305° West 131 151 3,400 1,271 Climbing Seattle Center
Tue 12:49:11 PM 47.6736 -122.5272 314° West 126 145 4,200 759 Climbing Seattle Center
Tue 12:49:54 PM 47.6925 -122.5561 313° West 140 161 4,400 188 Climbing Seattle Center
Tue 12:50:47 PM 47.7192 -122.5983 319° Northwest 159 183 4,500 67 Climbing Seattle Center
Tue 12:51:23 PM 47.7422 -122.6281 315° West 165 190 4,500  Level Seattle Center
Tue 12:52:14 PM 47.7692 -122.6675 299° West 163 188 4,500 -53 Level Seattle Center
Tue 12:53:16 PM 47.7906 -122.7250 297° West 158 182 4,400  Descending Seattle Center
Tue 12:54:25 PM 47.8139 -122.7925 288° West 159 183 4,500 46 Climbing Seattle Center
Tue 12:55:26 PM 47.8283 -122.8572 304° West 160 184 4,500  Level Seattle Center
Tue 12:56:27 PM 47.8542 -122.9153 306° West 164 189 4,500  Level Seattle Center
Tue 12:57:20 PM 47.8750 -122.9578 309° West 164 189 4,500 -52 Level Seattle Center
Tue 12:58:22 PM 47.9028 -123.0092 313° West 162 186 4,400 -49 Descending Seattle Center
Tue 12:59:23 PM 47.9364 -123.0631 310° West 163 188 4,400 -197 Level Seattle Center
Tue 01:00:24 PM 47.9669 -123.1178 305° West 168 193 4,000 -344 Descending Seattle Center
Tue 01:01:25 PM 47.9953 -123.1775 308° West 172 198 3,700 -295 Descending Seattle Center
Tue 01:02:26 PM 48.0261 -123.2367 305° West 177 204 3,400 -197 Descending Seattle Center
Tue 01:03:27 PM 48.0536 -123.2958 305° West 177 204 3,300 -98 Descending Seattle Center

Login

Don't have an account? Register now (free) for customized features, flight alerts, and more!